Etihad Airways Virtual Airport Information Service

Munich Airport

ICAO: EDDM Country: Germany
Latitude: 48.3538 Longitude: 11.7861
Latest Arrival : ETD3 (OMAA-EDDM) Latest Departure : ETDJUMP (EDDM-OMAA)


WX CaptureLIVE
Data provided by noaa.gov | Recorded at 18:16:14

METAR : EDDM 081750Z VRB02KT CAVOK 28/17 Q1020 NOSIG

TAF : EDDM 081700Z 0818/0924 VRB03KT CAVOK BECMG 0908/0910 08005KT BECMG 0917/0919 VRB03KT


Runway Data for EDDM
Data provided by openaviationdata.com

Runway ID Mag Var Hdg Length Elevation Surface ILS Freq ILS Id ILS Slope

Munich Airport, Germany
Use only for reference purposes